sensor_id;sensor_type;location;lat;lon;timestamp;P1;durP1;ratioP1;P2;durP2;ratioP2
32906;SDS011;19259;51.590;5.320;2022-09-01T00:02:04;5.30;;;1.52;;
32906;SDS011;19259;51.590;5.320;2022-09-01T00:04:34;3.77;;;1.32;;
32906;SDS011;19259;51.590;5.320;2022-09-01T00:07:04;3.50;;;1.40;;
32906;SDS011;19259;51.590;5.320;2022-09-01T00:09:32;3.12;;;1.42;;
32906;SDS011;19259;51.590;5.320;2022-09-01T00:12:01;5.37;;;1.42;;
32906;SDS011;19259;51.590;5.320;2022-09-01T00:14:31;3.15;;;1.17;;
32906;SDS011;19259;51.590;5.320;2022-09-01T00:17:02;4.15;;;1.40;;
32906;SDS011;19259;51.590;5.320;2022-09-01T00:19:31;3.65;;;1.30;;
32906;SDS011;19259;51.590;5.320;2022-09-01T00:22:00;4.97;;;1.20;;
32906;SDS011;19259;51.590;5.320;2022-09-01T00:24:28;5.75;;;1.55;;
32906;SDS011;19259;51.590;5.320;2022-09-01T00:26:56;3.77;;;1.55;;
32906;SDS011;19259;51.590;5.320;2022-09-01T00:29:24;3.98;;;1.42;;
32906;SDS011;19259;51.590;5.320;2022-09-01T00:31:52;3.92;;;1.30;;
32906;SDS011;19259;51.590;5.320;2022-09-01T00:34:20;3.55;;;1.37;;
32906;SDS011;19259;51.590;5.320;2022-09-01T00:36:47;4.62;;;1.65;;
32906;SDS011;19259;51.590;5.320;2022-09-01T00:39:15;6.17;;;2.20;;
32906;SDS011;19259;51.590;5.320;2022-09-01T00:41:43;3.72;;;1.50;;
32906;SDS011;19259;51.590;5.320;2022-09-01T00:44:13;3.72;;;1.62;;
32906;SDS011;19259;51.590;5.320;2022-09-01T00:46:47;4.78;;;1.50;;
32906;SDS011;19259;51.590;5.320;2022-09-01T00:49:25;3.47;;;1.57;;
32906;SDS011;19259;51.590;5.320;2022-09-01T00:52:07;2.55;;;1.37;;
32906;SDS011;19259;51.590;5.320;2022-09-01T00:54:44;4.12;;;1.50;;
32906;SDS011;19259;51.590;5.320;2022-09-01T00:57:17;4.73;;;1.57;;
32906;SDS011;19259;51.590;5.320;2022-09-01T00:59:46;5.17;;;1.60;;
32906;SDS011;19259;51.590;5.320;2022-09-01T01:02:18;2.62;;;1.35;;
32906;SDS011;19259;51.590;5.320;2022-09-01T01:04:46;4.35;;;1.42;;
32906;SDS011;19259;51.590;5.320;2022-09-01T01:07:14;3.80;;;1.47;;
32906;SDS011;19259;51.590;5.320;2022-09-01T01:09:43;4.22;;;1.42;;
32906;SDS011;19259;51.590;5.320;2022-09-01T01:12:12;3.17;;;1.60;;
32906;SDS011;19259;51.590;5.320;2022-09-01T01:14:42;3.12;;;1.75;;
32906;SDS011;19259;51.590;5.320;2022-09-01T01:17:13;3.20;;;1.62;;
32906;SDS011;19259;51.590;5.320;2022-09-01T01:19:43;3.45;;;1.60;;
32906;SDS011;19259;51.590;5.320;2022-09-01T01:22:43;5.95;;;1.35;;
32906;SDS011;19259;51.590;5.320;2022-09-01T01:25:35;5.03;;;1.60;;
32906;SDS011;19259;51.590;5.320;2022-09-01T01:28:11;7.70;;;2.08;;
32906;SDS011;19259;51.590;5.320;2022-09-01T01:30:45;2.98;;;1.62;;
32906;SDS011;19259;51.590;5.320;2022-09-01T01:33:15;4.03;;;1.52;;
32906;SDS011;19259;51.590;5.320;2022-09-01T01:35:52;2.70;;;1.27;;
32906;SDS011;19259;51.590;5.320;2022-09-01T01:38:17;8.10;;;1.62;;
32906;SDS011;19259;51.590;5.320;2022-09-01T01:40:49;4.97;;;1.75;;
32906;SDS011;19259;51.590;5.320;2022-09-01T01:43:18;3.45;;;1.80;;
32906;SDS011;19259;51.590;5.320;2022-09-01T01:45:48;3.47;;;1.67;;
32906;SDS011;19259;51.590;5.320;2022-09-01T01:48:21;5.05;;;1.65;;
32906;SDS011;19259;51.590;5.320;2022-09-01T01:50:52;2.75;;;1.60;;
32906;SDS011;19259;51.590;5.320;2022-09-01T01:53:22;3.22;;;1.40;;
32906;SDS011;19259;51.590;5.320;2022-09-01T01:55:50;3.12;;;1.60;;
32906;SDS011;19259;51.590;5.320;2022-09-01T01:58:20;3.55;;;1.57;;
32906;SDS011;19259;51.590;5.320;2022-09-01T02:00:50;3.47;;;1.62;;
32906;SDS011;19259;51.590;5.320;2022-09-01T02:03:21;3.22;;;1.50;;
32906;SDS011;19259;51.590;5.320;2022-09-01T02:05:51;4.35;;;2.02;;
32906;SDS011;19259;51.590;5.320;2022-09-01T02:08:23;6.62;;;1.90;;
32906;SDS011;19259;51.590;5.320;2022-09-01T02:10:52;4.65;;;1.70;;
32906;SDS011;19259;51.590;5.320;2022-09-01T02:13:23;3.10;;;1.55;;
32906;SDS011;19259;51.590;5.320;2022-09-01T02:15:53;5.10;;;1.98;;
32906;SDS011;19259;51.590;5.320;2022-09-01T02:18:24;5.00;;;1.55;;
32906;SDS011;19259;51.590;5.320;2022-09-01T02:20:52;6.37;;;1.60;;
32906;SDS011;19259;51.590;5.320;2022-09-01T02:23:22;4.20;;;1.50;;
32906;SDS011;19259;51.590;5.320;2022-09-01T02:25:51;4.95;;;1.82;;
32906;SDS011;19259;51.590;5.320;2022-09-01T02:28:28;4.05;;;1.72;;
32906;SDS011;19259;51.590;5.320;2022-09-01T02:30:57;4.28;;;1.67;;
32906;SDS011;19259;51.590;5.320;2022-09-01T02:33:27;5.15;;;2.05;;
32906;SDS011;19259;51.590;5.320;2022-09-01T02:35:57;3.27;;;1.82;;
32906;SDS011;19259;51.590;5.320;2022-09-01T02:38:27;3.02;;;1.90;;
32906;SDS011;19259;51.590;5.320;2022-09-01T02:40:57;4.95;;;1.62;;
32906;SDS011;19259;51.590;5.320;2022-09-01T02:43:27;3.80;;;2.30;;
32906;SDS011;19259;51.590;5.320;2022-09-01T02:45:57;7.33;;;2.20;;
32906;SDS011;19259;51.590;5.320;2022-09-01T02:48:27;4.15;;;2.08;;
32906;SDS011;19259;51.590;5.320;2022-09-01T02:51:08;5.97;;;2.00;;
32906;SDS011;19259;51.590;5.320;2022-09-01T02:53:39;5.03;;;1.72;;
32906;SDS011;19259;51.590;5.320;2022-09-01T02:56:08;5.03;;;2.02;;
32906;SDS011;19259;51.590;5.320;2022-09-01T02:58:41;8.35;;;2.10;;
32906;SDS011;19259;51.590;5.320;2022-09-01T03:01:25;6.33;;;1.75;;
32906;SDS011;19259;51.590;5.320;2022-09-01T03:04:03;4.92;;;1.90;;
32906;SDS011;19259;51.590;5.320;2022-09-01T03:06:34;5.87;;;2.10;;
32906;SDS011;19259;51.590;5.320;2022-09-01T03:09:04;4.15;;;1.70;;
32906;SDS011;19259;51.590;5.320;2022-09-01T03:11:36;2.60;;;1.62;;
32906;SDS011;19259;51.590;5.320;2022-09-01T03:14:06;7.50;;;1.98;;
32906;SDS011;19259;51.590;5.320;2022-09-01T03:16:34;4.83;;;2.15;;
32906;SDS011;19259;51.590;5.320;2022-09-01T03:19:04;3.67;;;1.70;;
32906;SDS011;19259;51.590;5.320;2022-09-01T03:21:34;4.78;;;2.12;;
32906;SDS011;19259;51.590;5.320;2022-09-01T03:24:06;3.60;;;1.95;;
32906;SDS011;19259;51.590;5.320;2022-09-01T03:26:37;3.98;;;2.00;;
32906;SDS011;19259;51.590;5.320;2022-09-01T03:29:10;5.08;;;2.10;;
32906;SDS011;19259;51.590;5.320;2022-09-01T03:31:34;3.95;;;2.05;;
32906;SDS011;19259;51.590;5.320;2022-09-01T03:34:03;3.27;;;1.87;;
32906;SDS011;19259;51.590;5.320;2022-09-01T03:36:31;4.33;;;2.00;;
32906;SDS011;19259;51.590;5.320;2022-09-01T03:39:00;5.12;;;2.10;;
32906;SDS011;19259;51.590;5.320;2022-09-01T03:41:28;4.75;;;2.00;;
32906;SDS011;19259;51.590;5.320;2022-09-01T03:43:56;3.45;;;1.92;;
32906;SDS011;19259;51.590;5.320;2022-09-01T03:46:24;6.17;;;2.00;;
32906;SDS011;19259;51.590;5.320;2022-09-01T03:48:55;5.87;;;2.08;;
32906;SDS011;19259;51.590;5.320;2022-09-01T03:51:25;6.45;;;2.10;;
32906;SDS011;19259;51.590;5.320;2022-09-01T03:53:55;3.80;;;1.90;;
32906;SDS011;19259;51.590;5.320;2022-09-01T03:56:25;3.92;;;2.15;;
32906;SDS011;19259;51.590;5.320;2022-09-01T03:58:56;5.45;;;2.15;;
32906;SDS011;19259;51.590;5.320;2022-09-01T04:01:26;6.47;;;2.42;;
32906;SDS011;19259;51.590;5.320;2022-09-01T04:03:56;3.75;;;1.85;;
32906;SDS011;19259;51.590;5.320;2022-09-01T04:06:26;5.87;;;2.40;;
32906;SDS011;19259;51.590;5.320;2022-09-01T04:08:55;3.83;;;1.95;;
32906;SDS011;19259;51.590;5.320;2022-09-01T04:11:24;4.45;;;2.27;;
32906;SDS011;19259;51.590;5.320;2022-09-01T04:13:51;6.70;;;2.20;;
32906;SDS011;19259;51.590;5.320;2022-09-01T04:16:20;4.15;;;2.37;;
32906;SDS011;19259;51.590;5.320;2022-09-01T04:19:08;4.92;;;2.60;;
32906;SDS011;19259;51.590;5.320;2022-09-01T04:21:46;4.60;;;2.02;;
32906;SDS011;19259;51.590;5.320;2022-09-01T04:24:16;6.70;;;2.35;;
32906;SDS011;19259;51.590;5.320;2022-09-01T04:26:45;5.33;;;2.62;;
32906;SDS011;19259;51.590;5.320;2022-09-01T04:29:17;9.20;;;2.30;;
32906;SDS011;19259;51.590;5.320;2022-09-01T04:31:52;5.53;;;1.90;;
32906;SDS011;19259;51.590;5.320;2022-09-01T04:34:21;3.95;;;2.10;;
32906;SDS011;19259;51.590;5.320;2022-09-01T04:36:49;7.22;;;2.40;;
32906;SDS011;19259;51.590;5.320;2022-09-01T04:39:21;3.58;;;2.05;;
32906;SDS011;19259;51.590;5.320;2022-09-01T04:41:49;6.28;;;2.10;;
32906;SDS011;19259;51.590;5.320;2022-09-01T04:44:17;8.15;;;2.40;;
32906;SDS011;19259;51.590;5.320;2022-09-01T04:46:45;8.10;;;2.35;;
32906;SDS011;19259;51.590;5.320;2022-09-01T04:49:16;5.85;;;2.17;;
32906;SDS011;19259;51.590;5.320;2022-09-01T04:51:48;4.10;;;1.98;;
32906;SDS011;19259;51.590;5.320;2022-09-01T04:54:16;8.05;;;2.52;;
32906;SDS011;19259;51.590;5.320;2022-09-01T04:56:45;4.22;;;2.45;;
32906;SDS011;19259;51.590;5.320;2022-09-01T04:59:18;4.03;;;2.35;;
32906;SDS011;19259;51.590;5.320;2022-09-01T05:01:48;5.28;;;2.75;;
32906;SDS011;19259;51.590;5.320;2022-09-01T05:04:22;5.78;;;2.35;;
32906;SDS011;19259;51.590;5.320;2022-09-01T05:06:53;5.72;;;1.95;;
32906;SDS011;19259;51.590;5.320;2022-09-01T05:09:26;4.10;;;2.05;;
32906;SDS011;19259;51.590;5.320;2022-09-01T05:11:56;6.28;;;2.35;;
32906;SDS011;19259;51.590;5.320;2022-09-01T05:14:26;5.72;;;2.33;;
32906;SDS011;19259;51.590;5.320;2022-09-01T05:16:57;6.08;;;2.70;;
32906;SDS011;19259;51.590;5.320;2022-09-01T05:19:26;6.10;;;2.40;;
32906;SDS011;19259;51.590;5.320;2022-09-01T05:21:54;6.92;;;2.37;;
32906;SDS011;19259;51.590;5.320;2022-09-01T05:24:24;5.33;;;2.50;;
32906;SDS011;19259;51.590;5.320;2022-09-01T05:26:53;6.17;;;2.37;;
32906;SDS011;19259;51.590;5.320;2022-09-01T05:29:21;5.00;;;2.37;;
32906;SDS011;19259;51.590;5.320;2022-09-01T05:31:49;7.37;;;2.35;;
32906;SDS011;19259;51.590;5.320;2022-09-01T05:34:17;6.40;;;2.30;;
32906;SDS011;19259;51.590;5.320;2022-09-01T05:36:46;6.15;;;3.00;;
32906;SDS011;19259;51.590;5.320;2022-09-01T05:39:15;4.28;;;2.52;;
32906;SDS011;19259;51.590;5.320;2022-09-01T05:41:43;6.22;;;2.92;;
32906;SDS011;19259;51.590;5.320;2022-09-01T05:44:12;7.12;;;2.10;;
32906;SDS011;19259;51.590;5.320;2022-09-01T05:46:41;5.90;;;2.42;;
32906;SDS011;19259;51.590;5.320;2022-09-01T05:49:10;8.98;;;2.60;;
32906;SDS011;19259;51.590;5.320;2022-09-01T05:51:43;4.03;;;2.27;;
32906;SDS011;19259;51.590;5.320;2022-09-01T05:54:15;7.00;;;2.05;;
32906;SDS011;19259;51.590;5.320;2022-09-01T05:56:46;8.33;;;2.25;;
32906;SDS011;19259;51.590;5.320;2022-09-01T05:59:13;4.62;;;2.50;;
32906;SDS011;19259;51.590;5.320;2022-09-01T06:01:41;7.83;;;2.70;;
32906;SDS011;19259;51.590;5.320;2022-09-01T06:04:09;5.60;;;3.00;;
32906;SDS011;19259;51.590;5.320;2022-09-01T06:06:42;6.58;;;3.17;;
32906;SDS011;19259;51.590;5.320;2022-09-01T06:09:12;4.85;;;2.17;;
32906;SDS011;19259;51.590;5.320;2022-09-01T06:11:44;5.70;;;2.60;;
32906;SDS011;19259;51.590;5.320;2022-09-01T06:14:12;12.18;;;2.60;;
32906;SDS011;19259;51.590;5.320;2022-09-01T06:16:41;5.85;;;2.42;;
32906;SDS011;19259;51.590;5.320;2022-09-01T06:19:11;7.72;;;2.60;;
32906;SDS011;19259;51.590;5.320;2022-09-01T06:21:43;5.17;;;2.87;;
32906;SDS011;19259;51.590;5.320;2022-09-01T06:24:07;5.03;;;2.75;;
32906;SDS011;19259;51.590;5.320;2022-09-01T06:26:36;5.58;;;2.40;;
32906;SDS011;19259;51.590;5.320;2022-09-01T06:29:06;9.30;;;2.50;;
32906;SDS011;19259;51.590;5.320;2022-09-01T06:31:37;6.65;;;2.55;;
32906;SDS011;19259;51.590;5.320;2022-09-01T06:34:06;4.30;;;2.40;;
32906;SDS011;19259;51.590;5.320;2022-09-01T06:36:37;5.60;;;2.72;;
32906;SDS011;19259;51.590;5.320;2022-09-01T06:39:10;8.63;;;2.50;;
32906;SDS011;19259;51.590;5.320;2022-09-01T06:41:42;4.12;;;2.50;;
32906;SDS011;19259;51.590;5.320;2022-09-01T06:44:11;5.37;;;2.75;;
32906;SDS011;19259;51.590;5.320;2022-09-01T06:46:39;6.03;;;2.27;;
32906;SDS011;19259;51.590;5.320;2022-09-01T06:49:07;7.42;;;2.87;;
32906;SDS011;19259;51.590;5.320;2022-09-01T06:51:36;8.78;;;2.95;;
32906;SDS011;19259;51.590;5.320;2022-09-01T06:54:03;4.72;;;2.30;;
32906;SDS011;19259;51.590;5.320;2022-09-01T06:56:31;8.03;;;2.65;;
32906;SDS011;19259;51.590;5.320;2022-09-01T06:59:00;8.40;;;3.08;;
32906;SDS011;19259;51.590;5.320;2022-09-01T07:01:30;8.43;;;3.02;;
32906;SDS011;19259;51.590;5.320;2022-09-01T07:04:01;11.85;;;2.85;;
32906;SDS011;19259;51.590;5.320;2022-09-01T07:06:29;7.42;;;2.72;;
32906;SDS011;19259;51.590;5.320;2022-09-01T07:08:57;6.78;;;2.47;;
32906;SDS011;19259;51.590;5.320;2022-09-01T07:11:30;11.57;;;2.87;;
32906;SDS011;19259;51.590;5.320;2022-09-01T07:14:06;9.80;;;2.70;;
32906;SDS011;19259;51.590;5.320;2022-09-01T07:16:32;4.55;;;2.60;;
32906;SDS011;19259;51.590;5.320;2022-09-01T07:19:03;6.92;;;2.65;;
32906;SDS011;19259;51.590;5.320;2022-09-01T07:21:33;13.25;;;2.30;;
32906;SDS011;19259;51.590;5.320;2022-09-01T07:24:01;6.60;;;2.27;;
32906;SDS011;19259;51.590;5.320;2022-09-01T07:26:29;5.42;;;2.12;;
32906;SDS011;19259;51.590;5.320;2022-09-01T07:28:58;4.37;;;2.15;;
32906;SDS011;19259;51.590;5.320;2022-09-01T07:31:29;5.30;;;2.10;;
32906;SDS011;19259;51.590;5.320;2022-09-01T07:34:03;6.58;;;1.95;;
32906;SDS011;19259;51.590;5.320;2022-09-01T07:36:33;5.25;;;2.20;;
32906;SDS011;19259;51.590;5.320;2022-09-01T07:39:02;3.35;;;2.05;;
32906;SDS011;19259;51.590;5.320;2022-09-01T07:41:31;5.15;;;2.10;;
32906;SDS011;19259;51.590;5.320;2022-09-01T07:44:00;4.28;;;2.20;;
32906;SDS011;19259;51.590;5.320;2022-09-01T07:46:30;5.35;;;2.75;;
32906;SDS011;19259;51.590;5.320;2022-09-01T07:48:58;5.60;;;2.30;;
32906;SDS011;19259;51.590;5.320;2022-09-01T07:51:27;5.90;;;2.27;;
32906;SDS011;19259;51.590;5.320;2022-09-01T07:53:56;3.98;;;2.27;;
32906;SDS011;19259;51.590;5.320;2022-09-01T07:56:26;7.72;;;2.30;;
32906;SDS011;19259;51.590;5.320;2022-09-01T07:58:57;5.08;;;2.20;;
32906;SDS011;19259;51.590;5.320;2022-09-01T08:01:27;9.73;;;2.45;;
32906;SDS011;19259;51.590;5.320;2022-09-01T08:03:56;10.95;;;3.22;;
32906;SDS011;19259;51.590;5.320;2022-09-01T08:06:27;6.12;;;2.50;;
32906;SDS011;19259;51.590;5.320;2022-09-01T08:08:55;5.00;;;2.42;;
32906;SDS011;19259;51.590;5.320;2022-09-01T08:11:26;5.20;;;2.35;;
32906;SDS011;19259;51.590;5.320;2022-09-01T08:13:56;6.67;;;2.60;;
32906;SDS011;19259;51.590;5.320;2022-09-01T08:16:25;6.80;;;2.60;;
32906;SDS011;19259;51.590;5.320;2022-09-01T08:18:55;5.37;;;2.27;;
32906;SDS011;19259;51.590;5.320;2022-09-01T08:21:23;4.62;;;2.20;;
32906;SDS011;19259;51.590;5.320;2022-09-01T08:23:52;4.40;;;2.58;;
32906;SDS011;19259;51.590;5.320;2022-09-01T08:26:21;5.47;;;2.47;;
32906;SDS011;19259;51.590;5.320;2022-09-01T08:28:50;10.63;;;2.87;;
32906;SDS011;19259;51.590;5.320;2022-09-01T08:31:19;6.92;;;2.72;;
32906;SDS011;19259;51.590;5.320;2022-09-01T08:33:48;7.87;;;2.87;;
32906;SDS011;19259;51.590;5.320;2022-09-01T08:36:17;4.97;;;2.83;;
32906;SDS011;19259;51.590;5.320;2022-09-01T08:38:45;3.95;;;2.40;;
32906;SDS011;19259;51.590;5.320;2022-09-01T08:41:18;7.45;;;2.33;;
32906;SDS011;19259;51.590;5.320;2022-09-01T08:43:58;5.28;;;2.20;;
32906;SDS011;19259;51.590;5.320;2022-09-01T08:46:31;6.03;;;2.90;;
32906;SDS011;19259;51.590;5.320;2022-09-01T08:49:06;4.45;;;2.15;;
32906;SDS011;19259;51.590;5.320;2022-09-01T08:57:34;7.35;;;2.83;;
32906;SDS011;19259;51.590;5.320;2022-09-01T09:00:08;5.55;;;2.47;;
32906;SDS011;19259;51.590;5.320;2022-09-01T09:05:57;5.00;;;2.17;;
32906;SDS011;19259;51.590;5.320;2022-09-01T09:11:26;4.62;;;2.47;;
32906;SDS011;19259;51.590;5.320;2022-09-01T09:16:48;7.67;;;2.47;;
32906;SDS011;19259;51.590;5.320;2022-09-01T09:19:27;6.42;;;2.40;;
32906;SDS011;19259;51.590;5.320;2022-09-01T09:21:57;8.75;;;2.90;;
32906;SDS011;19259;51.590;5.320;2022-09-01T09:24:30;5.00;;;2.22;;
32906;SDS011;19259;51.590;5.320;2022-09-01T09:27:19;5.42;;;2.12;;
32906;SDS011;19259;51.590;5.320;2022-09-01T09:29:55;6.40;;;2.45;;
32906;SDS011;19259;51.590;5.320;2022-09-01T09:35:29;3.70;;;1.95;;
32906;SDS011;19259;51.590;5.320;2022-09-01T09:41:01;6.20;;;2.30;;
32906;SDS011;19259;51.590;5.320;2022-09-01T09:43:37;4.67;;;1.95;;
32906;SDS011;19259;51.590;5.320;2022-09-01T09:46:23;3.60;;;1.90;;
32906;SDS011;19259;51.590;5.320;2022-09-01T09:54:41;5.12;;;1.80;;
32906;SDS011;19259;51.590;5.320;2022-09-01T09:57:26;8.63;;;1.60;;
32906;SDS011;19259;51.590;5.320;2022-09-01T10:00:05;3.67;;;2.02;;
32906;SDS011;19259;51.590;5.320;2022-09-01T10:02:39;4.53;;;1.52;;
32906;SDS011;19259;51.590;5.320;2022-09-01T10:07:57;4.62;;;1.77;;
32906;SDS011;19259;51.590;5.320;2022-09-01T10:10:39;3.72;;;1.55;;
32906;SDS011;19259;51.590;5.320;2022-09-01T10:13:15;4.90;;;2.08;;
32906;SDS011;19259;51.590;5.320;2022-09-01T10:15:52;3.25;;;1.50;;
32906;SDS011;19259;51.590;5.320;2022-09-01T10:18:25;5.30;;;1.75;;
32906;SDS011;19259;51.590;5.320;2022-09-01T10:21:00;6.55;;;1.52;;
32906;SDS011;19259;51.590;5.320;2022-09-01T10:23:36;6.53;;;1.35;;
32906;SDS011;19259;51.590;5.320;2022-09-01T10:26:18;3.72;;;1.32;;
32906;SDS011;19259;51.590;5.320;2022-09-01T10:28:56;3.02;;;1.37;;
32906;SDS011;19259;51.590;5.320;2022-09-01T10:31:28;3.47;;;1.07;;
32906;SDS011;19259;51.590;5.320;2022-09-01T10:34:01;2.60;;;1.32;;
32906;SDS011;19259;51.590;5.320;2022-09-01T10:36:32;4.37;;;1.10;;
32906;SDS011;19259;51.590;5.320;2022-09-01T10:39:02;4.25;;;1.45;;
32906;SDS011;19259;51.590;5.320;2022-09-01T10:44:19;2.52;;;1.10;;
32906;SDS011;19259;51.590;5.320;2022-09-01T10:46:50;2.92;;;1.25;;
32906;SDS011;19259;51.590;5.320;2022-09-01T10:51:48;3.20;;;1.22;;
32906;SDS011;19259;51.590;5.320;2022-09-01T10:57:09;4.72;;;1.20;;
32906;SDS011;19259;51.590;5.320;2022-09-01T10:59:38;2.75;;;1.12;;
32906;SDS011;19259;51.590;5.320;2022-09-01T11:13:07;3.17;;;1.37;;
32906;SDS011;19259;51.590;5.320;2022-09-01T11:15:41;3.25;;;1.20;;
32906;SDS011;19259;51.590;5.320;2022-09-01T11:18:13;3.35;;;1.17;;
32906;SDS011;19259;51.590;5.320;2022-09-01T11:20:44;2.00;;;0.90;;
32906;SDS011;19259;51.590;5.320;2022-09-01T11:23:21;2.65;;;0.90;;
32906;SDS011;19259;51.590;5.320;2022-09-01T11:25:56;4.25;;;1.22;;
32906;SDS011;19259;51.590;5.320;2022-09-01T11:38:46;8.48;;;1.10;;
32906;SDS011;19259;51.590;5.320;2022-09-01T11:41:20;3.22;;;1.17;;
32906;SDS011;19259;51.590;5.320;2022-09-01T11:43:50;3.58;;;1.02;;
32906;SDS011;19259;51.590;5.320;2022-09-01T11:46:29;1.90;;;0.90;;
32906;SDS011;19259;51.590;5.320;2022-09-01T11:49:02;3.62;;;0.80;;
32906;SDS011;19259;51.590;5.320;2022-09-01T11:51:36;2.55;;;1.00;;
32906;SDS011;19259;51.590;5.320;2022-09-01T11:54:06;3.70;;;1.10;;
32906;SDS011;19259;51.590;5.320;2022-09-01T11:56:34;2.45;;;1.20;;
32906;SDS011;19259;51.590;5.320;2022-09-01T11:59:01;5.35;;;1.35;;
32906;SDS011;19259;51.590;5.320;2022-09-01T12:01:34;4.22;;;1.07;;
32906;SDS011;19259;51.590;5.320;2022-09-01T12:04:21;2.67;;;1.00;;
32906;SDS011;19259;51.590;5.320;2022-09-01T12:06:57;6.35;;;1.07;;
32906;SDS011;19259;51.590;5.320;2022-09-01T12:09:30;2.55;;;0.90;;
32906;SDS011;19259;51.590;5.320;2022-09-01T12:12:03;4.83;;;1.12;;
32906;SDS011;19259;51.590;5.320;2022-09-01T12:14:32;2.33;;;0.98;;
32906;SDS011;19259;51.590;5.320;2022-09-01T12:17:06;1.92;;;0.90;;
32906;SDS011;19259;51.590;5.320;2022-09-01T12:19:33;2.17;;;1.05;;
32906;SDS011;19259;51.590;5.320;2022-09-01T12:22:05;5.83;;;1.02;;
32906;SDS011;19259;51.590;5.320;2022-09-01T12:24:36;2.45;;;1.35;;
32906;SDS011;19259;51.590;5.320;2022-09-01T12:27:04;2.75;;;1.30;;
32906;SDS011;19259;51.590;5.320;2022-09-01T12:29:31;4.12;;;0.90;;
32906;SDS011;19259;51.590;5.320;2022-09-01T12:31:59;2.75;;;1.10;;
32906;SDS011;19259;51.590;5.320;2022-09-01T12:34:40;2.25;;;0.93;;
32906;SDS011;19259;51.590;5.320;2022-09-01T12:39:48;2.08;;;0.82;;
32906;SDS011;19259;51.590;5.320;2022-09-01T12:50:30;1.52;;;0.70;;
32906;SDS011;19259;51.590;5.320;2022-09-01T12:52:53;1.17;;;0.75;;
32906;SDS011;19259;51.590;5.320;2022-09-01T12:55:17;2.27;;;0.80;;
32906;SDS011;19259;51.590;5.320;2022-09-01T12:57:52;2.45;;;1.07;;
32906;SDS011;19259;51.590;5.320;2022-09-01T13:03:36;7.40;;;0.75;;
32906;SDS011;19259;51.590;5.320;2022-09-01T13:08:01;2.15;;;1.00;;
32906;SDS011;19259;51.590;5.320;2022-09-01T13:10:39;1.75;;;0.60;;
32906;SDS011;19259;51.590;5.320;2022-09-01T13:13:11;4.00;;;1.15;;
32906;SDS011;19259;51.590;5.320;2022-09-01T13:15:41;3.25;;;0.70;;
32906;SDS011;19259;51.590;5.320;2022-09-01T13:18:11;3.33;;;0.85;;
32906;SDS011;19259;51.590;5.320;2022-09-01T13:20:40;2.58;;;0.98;;
32906;SDS011;19259;51.590;5.320;2022-09-01T13:23:08;3.22;;;1.05;;
32906;SDS011;19259;51.590;5.320;2022-09-01T13:25:37;1.98;;;0.60;;
32906;SDS011;19259;51.590;5.320;2022-09-01T13:28:06;2.98;;;0.80;;
32906;SDS011;19259;51.590;5.320;2022-09-01T13:30:36;1.87;;;0.90;;
32906;SDS011;19259;51.590;5.320;2022-09-01T13:33:04;2.35;;;0.50;;
32906;SDS011;19259;51.590;5.320;2022-09-01T13:35:31;3.37;;;0.72;;
32906;SDS011;19259;51.590;5.320;2022-09-01T13:37:59;3.85;;;1.22;;
32906;SDS011;19259;51.590;5.320;2022-09-01T13:40:27;3.15;;;1.45;;
32906;SDS011;19259;51.590;5.320;2022-09-01T13:42:55;3.08;;;0.90;;
32906;SDS011;19259;51.590;5.320;2022-09-01T13:45:31;1.02;;;0.65;;
32906;SDS011;19259;51.590;5.320;2022-09-01T13:48:01;4.85;;;1.30;;
32906;SDS011;19259;51.590;5.320;2022-09-01T13:50:28;2.22;;;1.17;;
32906;SDS011;19259;51.590;5.320;2022-09-01T13:52:56;3.27;;;0.90;;
32906;SDS011;19259;51.590;5.320;2022-09-01T13:55:28;2.27;;;0.65;;
32906;SDS011;19259;51.590;5.320;2022-09-01T13:57:59;3.20;;;0.90;;
32906;SDS011;19259;51.590;5.320;2022-09-01T14:00:30;3.33;;;0.70;;
32906;SDS011;19259;51.590;5.320;2022-09-01T14:03:02;5.22;;;1.00;;
32906;SDS011;19259;51.590;5.320;2022-09-01T14:05:39;2.37;;;0.95;;
32906;SDS011;19259;51.590;5.320;2022-09-01T14:08:08;3.60;;;0.68;;
32906;SDS011;19259;51.590;5.320;2022-09-01T14:10:39;6.53;;;0.95;;
32906;SDS011;19259;51.590;5.320;2022-09-01T14:13:09;3.12;;;0.70;;
32906;SDS011;19259;51.590;5.320;2022-09-01T14:15:38;3.20;;;1.32;;
32906;SDS011;19259;51.590;5.320;2022-09-01T14:18:06;3.92;;;0.98;;
32906;SDS011;19259;51.590;5.320;2022-09-01T14:20:35;2.85;;;0.95;;
32906;SDS011;19259;51.590;5.320;2022-09-01T14:23:07;4.43;;;1.30;;
32906;SDS011;19259;51.590;5.320;2022-09-01T14:25:36;2.98;;;1.00;;
32906;SDS011;19259;51.590;5.320;2022-09-01T14:28:05;4.92;;;0.80;;
32906;SDS011;19259;51.590;5.320;2022-09-01T14:30:33;4.90;;;0.90;;
32906;SDS011;19259;51.590;5.320;2022-09-01T14:33:01;2.45;;;0.80;;
32906;SDS011;19259;51.590;5.320;2022-09-01T14:35:29;3.35;;;0.90;;
32906;SDS011;19259;51.590;5.320;2022-09-01T14:38:00;2.58;;;0.80;;
32906;SDS011;19259;51.590;5.320;2022-09-01T14:40:29;3.72;;;1.00;;
32906;SDS011;19259;51.590;5.320;2022-09-01T14:42:57;3.20;;;1.02;;
32906;SDS011;19259;51.590;5.320;2022-09-01T14:45:26;1.50;;;0.70;;
32906;SDS011;19259;51.590;5.320;2022-09-01T14:47:54;2.70;;;0.98;;
32906;SDS011;19259;51.590;5.320;2022-09-01T14:50:26;2.62;;;1.00;;
32906;SDS011;19259;51.590;5.320;2022-09-01T14:52:56;5.00;;;0.98;;
32906;SDS011;19259;51.590;5.320;2022-09-01T14:55:26;1.82;;;0.93;;
32906;SDS011;19259;51.590;5.320;2022-09-01T14:57:54;1.80;;;0.93;;
32906;SDS011;19259;51.590;5.320;2022-09-01T15:00:22;3.65;;;0.80;;
32906;SDS011;19259;51.590;5.320;2022-09-01T15:02:51;7.20;;;1.12;;
32906;SDS011;19259;51.590;5.320;2022-09-01T15:05:20;2.95;;;0.80;;
32906;SDS011;19259;51.590;5.320;2022-09-01T15:07:49;5.55;;;1.10;;
32906;SDS011;19259;51.590;5.320;2022-09-01T15:10:19;3.35;;;1.12;;
32906;SDS011;19259;51.590;5.320;2022-09-01T15:12:48;3.87;;;1.00;;
32906;SDS011;19259;51.590;5.320;2022-09-01T15:15:16;3.05;;;0.88;;
32906;SDS011;19259;51.590;5.320;2022-09-01T15:17:44;2.00;;;1.25;;
32906;SDS011;19259;51.590;5.320;2022-09-01T15:20:11;4.78;;;1.07;;
32906;SDS011;19259;51.590;5.320;2022-09-01T15:22:57;5.60;;;1.40;;
32906;SDS011;19259;51.590;5.320;2022-09-01T15:25:25;2.98;;;1.07;;
32906;SDS011;19259;51.590;5.320;2022-09-01T15:27:52;2.70;;;1.05;;
32906;SDS011;19259;51.590;5.320;2022-09-01T15:30:20;5.92;;;1.47;;
32906;SDS011;19259;51.590;5.320;2022-09-01T15:32:50;2.65;;;1.35;;
32906;SDS011;19259;51.590;5.320;2022-09-01T15:35:19;2.58;;;1.00;;
32906;SDS011;19259;51.590;5.320;2022-09-01T15:37:48;6.40;;;1.30;;
32906;SDS011;19259;51.590;5.320;2022-09-01T15:40:17;3.98;;;1.45;;
32906;SDS011;19259;51.590;5.320;2022-09-01T15:42:45;4.30;;;1.05;;
32906;SDS011;19259;51.590;5.320;2022-09-01T15:45:14;8.40;;;3.40;;
32906;SDS011;19259;51.590;5.320;2022-09-01T15:47:45;5.78;;;1.30;;
32906;SDS011;19259;51.590;5.320;2022-09-01T15:50:17;7.25;;;1.55;;
32906;SDS011;19259;51.590;5.320;2022-09-01T15:52:50;2.52;;;0.90;;
32906;SDS011;19259;51.590;5.320;2022-09-01T15:55:23;5.35;;;1.15;;
32906;SDS011;19259;51.590;5.320;2022-09-01T15:57:52;4.08;;;1.10;;
32906;SDS011;19259;51.590;5.320;2022-09-01T16:00:21;7.28;;;1.57;;
32906;SDS011;19259;51.590;5.320;2022-09-01T16:02:50;6.22;;;1.77;;
32906;SDS011;19259;51.590;5.320;2022-09-01T16:05:19;5.35;;;2.02;;
32906;SDS011;19259;51.590;5.320;2022-09-01T16:07:48;5.70;;;1.75;;
32906;SDS011;19259;51.590;5.320;2022-09-01T16:10:17;4.80;;;1.30;;
32906;SDS011;19259;51.590;5.320;2022-09-01T16:12:44;6.45;;;1.80;;
32906;SDS011;19259;51.590;5.320;2022-09-01T16:15:14;3.75;;;1.40;;
32906;SDS011;19259;51.590;5.320;2022-09-01T16:18:02;3.50;;;1.35;;
32906;SDS011;19259;51.590;5.320;2022-09-01T16:23:23;2.72;;;1.20;;
32906;SDS011;19259;51.590;5.320;2022-09-01T16:25:54;3.12;;;1.00;;
32906;SDS011;19259;51.590;5.320;2022-09-01T16:28:29;2.92;;;1.30;;